sensor_id;sensor_type;location;lat;lon;timestamp;pressure;altitude;pressure_sealevel;temperature;humidity
78444;BME280;67739;52.986;8.894;2023-03-14T00:01:53;98954.03;;;8.11;88.50
78444;BME280;67739;52.986;8.894;2023-03-14T00:04:18;98950.09;;;8.16;88.95
78444;BME280;67739;52.986;8.894;2023-03-14T00:06:44;98938.97;;;8.23;88.61
78444;BME280;67739;52.986;8.894;2023-03-14T00:09:09;98931.72;;;8.25;88.61
78444;BME280;67739;52.986;8.894;2023-03-14T00:11:39;98935.03;;;8.28;88.54
78444;BME280;67739;52.986;8.894;2023-03-14T00:14:04;98932.19;;;8.31;88.06
78444;BME280;67739;52.986;8.894;2023-03-14T00:16:30;98940.19;;;8.31;88.16
78444;BME280;67739;52.986;8.894;2023-03-14T00:18:55;98934.78;;;8.33;88.05
78444;BME280;67739;52.986;8.894;2023-03-14T00:21:21;98923.13;;;8.34;88.40
78444;BME280;67739;52.986;8.894;2023-03-14T00:23:46;98916.84;;;8.35;87.87
78444;BME280;67739;52.986;8.894;2023-03-14T00:26:14;98926.44;;;8.37;88.22
78444;BME280;67739;52.986;8.894;2023-03-14T00:28:40;98912.97;;;8.39;87.56
78444;BME280;67739;52.986;8.894;2023-03-14T00:31:07;98913.19;;;8.36;87.71
78444;BME280;67739;52.986;8.894;2023-03-14T00:33:33;98927.28;;;8.38;87.57
78444;BME280;67739;52.986;8.894;2023-03-14T00:36:02;98934.56;;;8.36;87.24
78444;BME280;67739;52.986;8.894;2023-03-14T00:38:27;98935.28;;;8.38;87.85
78444;BME280;67739;52.986;8.894;2023-03-14T00:40:53;98941.09;;;8.44;88.09
78444;BME280;67739;52.986;8.894;2023-03-14T00:43:20;98947.59;;;8.53;88.36
78444;BME280;67739;52.986;8.894;2023-03-14T00:45:52;98951.56;;;8.60;88.23
78444;BME280;67739;52.986;8.894;2023-03-14T00:48:18;98945.06;;;8.64;88.23
78444;BME280;67739;52.986;8.894;2023-03-14T00:50:44;98932.41;;;8.66;87.69
78444;BME280;67739;52.986;8.894;2023-03-14T00:53:10;98934.25;;;8.66;87.62
78444;BME280;67739;52.986;8.894;2023-03-14T00:55:39;98940.34;;;8.68;87.92
78444;BME280;67739;52.986;8.894;2023-03-14T00:58:05;98949.09;;;8.70;88.17
78444;BME280;67739;52.986;8.894;2023-03-14T01:00:32;98939.91;;;8.74;88.25
78444;BME280;67739;52.986;8.894;2023-03-14T01:02:57;98927.19;;;8.77;87.76
78444;BME280;67739;52.986;8.894;2023-03-14T01:05:23;98918.94;;;8.80;87.76
78444;BME280;67739;52.986;8.894;2023-03-14T01:07:49;98909.25;;;8.79;87.47
78444;BME280;67739;52.986;8.894;2023-03-14T01:10:14;98899.72;;;8.75;86.92
78444;BME280;67739;52.986;8.894;2023-03-14T01:12:40;98880.25;;;8.73;87.19
78444;BME280;67739;52.986;8.894;2023-03-14T01:15:06;98873.19;;;8.72;86.95
78444;BME280;67739;52.986;8.894;2023-03-14T01:17:31;98852.88;;;8.70;86.80
78444;BME280;67739;52.986;8.894;2023-03-14T01:19:57;98837.91;;;8.67;86.82
78444;BME280;67739;52.986;8.894;2023-03-14T01:22:22;98838.88;;;8.66;86.95
78444;BME280;67739;52.986;8.894;2023-03-14T01:24:47;98843.50;;;8.64;86.67
78444;BME280;67739;52.986;8.894;2023-03-14T01:27:13;98854.50;;;8.60;86.82
78444;BME280;67739;52.986;8.894;2023-03-14T01:29:38;98855.78;;;8.54;86.92
78444;BME280;67739;52.986;8.894;2023-03-14T01:32:03;98863.03;;;8.52;86.87
78444;BME280;67739;52.986;8.894;2023-03-14T01:34:29;98858.91;;;8.48;86.94
78444;BME280;67739;52.986;8.894;2023-03-14T01:36:54;98859.75;;;8.48;87.47
78444;BME280;67739;52.986;8.894;2023-03-14T01:39:19;98852.50;;;8.50;87.39
78444;BME280;67739;52.986;8.894;2023-03-14T01:41:45;98844.56;;;8.49;87.28
78444;BME280;67739;52.986;8.894;2023-03-14T01:44:11;98847.34;;;8.47;86.88
78444;BME280;67739;52.986;8.894;2023-03-14T01:46:44;98825.44;;;8.42;86.79
78444;BME280;67739;52.986;8.894;2023-03-14T01:54:20;98803.09;;;8.31;87.39
78444;BME280;67739;52.986;8.894;2023-03-14T01:56:54;98805.97;;;8.28;87.42
78444;BME280;67739;52.986;8.894;2023-03-14T01:59:21;98805.31;;;8.24;87.62
78444;BME280;67739;52.986;8.894;2023-03-14T02:01:47;98802.03;;;8.21;87.65
78444;BME280;67739;52.986;8.894;2023-03-14T02:04:15;98808.53;;;8.16;87.68
78444;BME280;67739;52.986;8.894;2023-03-14T02:06:48;98805.13;;;8.14;88.36
78444;BME280;67739;52.986;8.894;2023-03-14T02:09:15;98812.06;;;8.17;87.97
78444;BME280;67739;52.986;8.894;2023-03-14T02:11:40;98805.00;;;8.16;87.94
78444;BME280;67739;52.986;8.894;2023-03-14T02:14:07;98818.28;;;8.18;87.90
78444;BME280;67739;52.986;8.894;2023-03-14T02:16:35;98817.41;;;8.17;88.01
78444;BME280;67739;52.986;8.894;2023-03-14T02:19:00;98830.66;;;8.19;88.32
78444;BME280;67739;52.986;8.894;2023-03-14T02:22:05;98822.31;;;8.23;88.82
78444;BME280;67739;52.986;8.894;2023-03-14T02:24:38;98835.34;;;8.28;88.83
78444;BME280;67739;52.986;8.894;2023-03-14T02:27:16;98834.28;;;8.30;88.09
78444;BME280;67739;52.986;8.894;2023-03-14T02:30:06;98836.69;;;8.35;88.66
78444;BME280;67739;52.986;8.894;2023-03-14T02:32:34;98835.47;;;8.39;89.06
78444;BME280;67739;52.986;8.894;2023-03-14T02:35:05;98833.34;;;8.44;88.25
78444;BME280;67739;52.986;8.894;2023-03-14T02:37:55;98846.28;;;8.50;88.55
78444;BME280;67739;52.986;8.894;2023-03-14T02:40:22;98842.19;;;8.57;88.24
78444;BME280;67739;52.986;8.894;2023-03-14T02:42:48;98840.69;;;8.66;88.08
78444;BME280;67739;52.986;8.894;2023-03-14T02:47:44;98845.94;;;8.80;87.96
78444;BME280;67739;52.986;8.894;2023-03-14T02:50:17;98828.69;;;8.84;87.50
78444;BME280;67739;52.986;8.894;2023-03-14T02:52:44;98821.06;;;8.91;87.50
78444;BME280;67739;52.986;8.894;2023-03-14T02:55:10;98823.41;;;8.95;86.76
78444;BME280;67739;52.986;8.894;2023-03-14T02:57:35;98815.03;;;9.00;86.74
78444;BME280;67739;52.986;8.894;2023-03-14T03:00:02;98818.38;;;9.03;86.22
78444;BME280;67739;52.986;8.894;2023-03-14T03:02:29;98815.09;;;9.11;86.22
78444;BME280;67739;52.986;8.894;2023-03-14T03:04:55;98812.97;;;9.16;85.63
78444;BME280;67739;52.986;8.894;2023-03-14T03:07:20;98816.38;;;9.18;84.92
78444;BME280;67739;52.986;8.894;2023-03-14T03:09:46;98811.88;;;9.18;85.46
78444;BME280;67739;52.986;8.894;2023-03-14T03:12:11;98808.34;;;9.18;85.16
78444;BME280;67739;52.986;8.894;2023-03-14T03:14:37;98810.06;;;9.19;85.19
78444;BME280;67739;52.986;8.894;2023-03-14T03:17:06;98797.31;;;9.23;84.90
78444;BME280;67739;52.986;8.894;2023-03-14T03:19:32;98805.09;;;9.26;84.65
78444;BME280;67739;52.986;8.894;2023-03-14T03:21:58;98788.94;;;9.27;84.63
78444;BME280;67739;52.986;8.894;2023-03-14T03:24:24;98785.06;;;9.31;84.29
78444;BME280;67739;52.986;8.894;2023-03-14T03:26:49;98793.72;;;9.35;84.10
78444;BME280;67739;52.986;8.894;2023-03-14T03:29:15;98786.56;;;9.35;84.26
78444;BME280;67739;52.986;8.894;2023-03-14T03:31:40;98782.91;;;9.36;84.05
78444;BME280;67739;52.986;8.894;2023-03-14T03:34:05;98782.16;;;9.34;83.49
78444;BME280;67739;52.986;8.894;2023-03-14T03:36:31;98778.75;;;9.32;83.19
78444;BME280;67739;52.986;8.894;2023-03-14T03:38:56;98777.03;;;9.31;83.60
78444;BME280;67739;52.986;8.894;2023-03-14T03:41:22;98781.53;;;9.31;83.42
78444;BME280;67739;52.986;8.894;2023-03-14T03:43:47;98778.97;;;9.29;83.42
78444;BME280;67739;52.986;8.894;2023-03-14T03:46:12;98772.66;;;9.30;83.56
78444;BME280;67739;52.986;8.894;2023-03-14T03:48:38;98770.72;;;9.32;83.71
78444;BME280;67739;52.986;8.894;2023-03-14T03:51:03;98777.56;;;9.36;83.80
78444;BME280;67739;52.986;8.894;2023-03-14T03:53:29;98774.75;;;9.38;83.52
78444;BME280;67739;52.986;8.894;2023-03-14T03:55:54;98770.25;;;9.38;83.79
78444;BME280;67739;52.986;8.894;2023-03-14T03:58:19;98779.28;;;9.37;83.91
78444;BME280;67739;52.986;8.894;2023-03-14T04:00:45;98766.97;;;9.35;84.28
78444;BME280;67739;52.986;8.894;2023-03-14T04:03:10;98767.31;;;9.30;84.93
78444;BME280;67739;52.986;8.894;2023-03-14T04:05:35;98769.25;;;9.28;84.96
78444;BME280;67739;52.986;8.894;2023-03-14T04:08:01;98769.47;;;9.25;84.57
78444;BME280;67739;52.986;8.894;2023-03-14T04:10:27;98783.19;;;9.20;84.65
78444;BME280;67739;52.986;8.894;2023-03-14T04:12:52;98773.78;;;9.15;85.00
78444;BME280;67739;52.986;8.894;2023-03-14T04:15:18;98782.91;;;9.12;85.25
78444;BME280;67739;52.986;8.894;2023-03-14T04:17:43;98779.38;;;9.12;85.21
78444;BME280;67739;52.986;8.894;2023-03-14T04:20:09;98784.97;;;9.09;85.81
78444;BME280;67739;52.986;8.894;2023-03-14T04:22:36;98775.25;;;9.08;85.52
78444;BME280;67739;52.986;8.894;2023-03-14T04:25:02;98776.09;;;9.08;85.75
78444;BME280;67739;52.986;8.894;2023-03-14T04:27:28;98774.28;;;9.09;85.86
78444;BME280;67739;52.986;8.894;2023-03-14T04:29:54;98770.59;;;9.10;85.85
78444;BME280;67739;52.986;8.894;2023-03-14T04:32:19;98764.53;;;9.08;86.00
78444;BME280;67739;52.986;8.894;2023-03-14T04:34:45;98770.75;;;9.08;85.48
78444;BME280;67739;52.986;8.894;2023-03-14T04:37:10;98768.06;;;9.08;85.84
78444;BME280;67739;52.986;8.894;2023-03-14T04:39:36;98760.16;;;9.07;85.52
78444;BME280;67739;52.986;8.894;2023-03-14T04:42:01;98761.13;;;9.06;85.47
78444;BME280;67739;52.986;8.894;2023-03-14T04:44:26;98762.09;;;9.05;85.15
78444;BME280;67739;52.986;8.894;2023-03-14T04:46:52;98763.03;;;9.04;85.19
78444;BME280;67739;52.986;8.894;2023-03-14T04:49:17;98764.00;;;9.03;85.42
78444;BME280;67739;52.986;8.894;2023-03-14T04:51:42;98754.41;;;9.00;85.29
78444;BME280;67739;52.986;8.894;2023-03-14T04:54:08;98745.41;;;9.01;85.10
78444;BME280;67739;52.986;8.894;2023-03-14T04:56:33;98738.22;;;9.02;85.56
78444;BME280;67739;52.986;8.894;2023-03-14T04:58:59;98744.44;;;9.02;85.23
78444;BME280;67739;52.986;8.894;2023-03-14T05:01:24;98748.81;;;9.03;85.37
78444;BME280;67739;52.986;8.894;2023-03-14T05:03:49;98748.81;;;9.03;85.16
78444;BME280;67739;52.986;8.894;2023-03-14T05:06:15;98748.06;;;9.01;84.89
78444;BME280;67739;52.986;8.894;2023-03-14T05:08:40;98758.78;;;9.01;85.11
78444;BME280;67739;52.986;8.894;2023-03-14T05:11:06;98742.72;;;9.01;84.82
78444;BME280;67739;52.986;8.894;2023-03-14T05:13:31;98761.56;;;9.00;84.44
78444;BME280;67739;52.986;8.894;2023-03-14T05:16:07;98756.53;;;8.95;84.20
78444;BME280;67739;52.986;8.894;2023-03-14T05:18:33;98755.94;;;8.92;83.79
78444;BME280;67739;52.986;8.894;2023-03-14T05:20:58;98751.66;;;8.89;83.79
78444;BME280;67739;52.986;8.894;2023-03-14T05:23:24;98752.75;;;8.86;84.00
78444;BME280;67739;52.986;8.894;2023-03-14T05:25:49;98756.38;;;8.85;84.23
78444;BME280;67739;52.986;8.894;2023-03-14T05:28:14;98758.09;;;8.86;84.12
78444;BME280;67739;52.986;8.894;2023-03-14T05:30:39;98749.09;;;8.88;84.28
78444;BME280;67739;52.986;8.894;2023-03-14T05:33:05;98749.09;;;8.88;84.40
78444;BME280;67739;52.986;8.894;2023-03-14T05:35:30;98744.59;;;8.88;84.41
78444;BME280;67739;52.986;8.894;2023-03-14T05:37:56;98755.31;;;8.88;84.45
78444;BME280;67739;52.986;8.894;2023-03-14T05:40:21;98751.03;;;8.85;84.34
78444;BME280;67739;52.986;8.894;2023-03-14T05:42:47;98744.19;;;8.81;83.89
78444;BME280;67739;52.986;8.894;2023-03-14T05:45:12;98748.06;;;8.77;84.10
78444;BME280;67739;52.986;8.894;2023-03-14T05:47:37;98742.31;;;8.71;84.13
78444;BME280;67739;52.986;8.894;2023-03-14T05:50:03;98737.44;;;8.65;83.73
78444;BME280;67739;52.986;8.894;2023-03-14T05:52:28;98729.97;;;8.57;83.65
78444;BME280;67739;52.986;8.894;2023-03-14T05:54:53;98738.44;;;8.51;83.99
78444;BME280;67739;52.986;8.894;2023-03-14T05:57:19;98743.25;;;8.46;83.80
78444;BME280;67739;52.986;8.894;2023-03-14T05:59:45;98743.69;;;8.40;83.91
78444;BME280;67739;52.986;8.894;2023-03-14T06:02:10;98742.31;;;8.34;84.05
78444;BME280;67739;52.986;8.894;2023-03-14T06:04:35;98749.00;;;8.27;84.24
78444;BME280;67739;52.986;8.894;2023-03-14T06:07:01;98755.44;;;8.25;83.97
78444;BME280;67739;52.986;8.894;2023-03-14T06:09:26;98753.84;;;8.22;84.24
78444;BME280;67739;52.986;8.894;2023-03-14T06:11:52;98749.56;;;8.20;84.55
78444;BME280;67739;52.986;8.894;2023-03-14T06:14:17;98752.34;;;8.18;84.38
78444;BME280;67739;52.986;8.894;2023-03-14T06:16:42;98747.97;;;8.17;84.66
78444;BME280;67739;52.986;8.894;2023-03-14T06:19:08;98745.50;;;8.14;84.38
78444;BME280;67739;52.986;8.894;2023-03-14T06:21:33;98758.97;;;8.12;84.66
78444;BME280;67739;52.986;8.894;2023-03-14T06:23:59;98761.53;;;8.14;85.03
78444;BME280;67739;52.986;8.894;2023-03-14T06:26:24;98770.19;;;8.18;85.63
78444;BME280;67739;52.986;8.894;2023-03-14T06:28:49;98759.41;;;8.19;85.79
78444;BME280;67739;52.986;8.894;2023-03-14T06:31:16;98768.88;;;8.23;85.44
78444;BME280;67739;52.986;8.894;2023-03-14T06:33:41;98766.00;;;8.26;85.72
78444;BME280;67739;52.986;8.894;2023-03-14T06:36:07;98764.94;;;8.29;85.88
78444;BME280;67739;52.986;8.894;2023-03-14T06:38:32;98776.94;;;8.36;86.40
78444;BME280;67739;52.986;8.894;2023-03-14T06:41:06;98773.81;;;8.42;86.22
78444;BME280;67739;52.986;8.894;2023-03-14T06:43:32;98771.69;;;8.47;86.66
78444;BME280;67739;52.986;8.894;2023-03-14T06:45:57;98770.38;;;8.52;86.36
78444;BME280;67739;52.986;8.894;2023-03-14T06:48:22;98770.16;;;8.56;86.10
78444;BME280;67739;52.986;8.894;2023-03-14T06:50:48;98767.16;;;8.60;86.01
78444;BME280;67739;52.986;8.894;2023-03-14T06:53:14;98775.06;;;8.62;86.03
78444;BME280;67739;52.986;8.894;2023-03-14T06:55:39;98770.47;;;8.64;86.09
78444;BME280;67739;52.986;8.894;2023-03-14T06:58:05;98765.84;;;8.66;85.96
78444;BME280;67739;52.986;8.894;2023-03-14T07:00:33;98766.47;;;8.69;85.91
78444;BME280;67739;52.986;8.894;2023-03-14T07:02:59;98774.28;;;8.72;85.94
78444;BME280;67739;52.986;8.894;2023-03-14T07:05:24;98772.25;;;8.76;85.94
78444;BME280;67739;52.986;8.894;2023-03-14T07:07:50;98780.91;;;8.79;85.79
78444;BME280;67739;52.986;8.894;2023-03-14T07:10:15;98783.22;;;8.84;85.94
78444;BME280;67739;52.986;8.894;2023-03-14T07:12:41;98771.34;;;8.88;85.69
78444;BME280;67739;52.986;8.894;2023-03-14T07:15:06;98780.75;;;8.94;85.62
78444;BME280;67739;52.986;8.894;2023-03-14T07:17:32;98782.09;;;8.99;85.79
78444;BME280;67739;52.986;8.894;2023-03-14T07:19:57;98778.13;;;9.05;85.37
78444;BME280;67739;52.986;8.894;2023-03-14T07:22:24;98775.25;;;9.08;85.47
78444;BME280;67739;52.986;8.894;2023-03-14T07:24:49;98781.81;;;9.15;85.14
78444;BME280;67739;52.986;8.894;2023-03-14T07:27:14;98776.03;;;9.21;85.43
78444;BME280;67739;52.986;8.894;2023-03-14T07:29:40;98773.25;;;9.23;84.82
78444;BME280;67739;52.986;8.894;2023-03-14T07:32:05;98772.25;;;9.23;84.07
78444;BME280;67739;52.986;8.894;2023-03-14T07:34:31;98773.84;;;9.26;83.95
78444;BME280;67739;52.986;8.894;2023-03-14T07:36:56;98777.16;;;9.30;83.83
78444;BME280;67739;52.986;8.894;2023-03-14T07:39:21;98767.72;;;9.37;84.44
78444;BME280;67739;52.986;8.894;2023-03-14T07:41:46;98776.00;;;9.45;84.15
78444;BME280;67739;52.986;8.894;2023-03-14T07:44:12;98783.44;;;9.52;83.86
78444;BME280;67739;52.986;8.894;2023-03-14T07:46:37;98780.06;;;9.62;84.11
78444;BME280;67739;52.986;8.894;2023-03-14T07:49:02;98781.06;;;9.72;83.43
78444;BME280;67739;52.986;8.894;2023-03-14T07:51:28;98780.38;;;9.81;83.19
78444;BME280;67739;52.986;8.894;2023-03-14T07:53:53;98785.03;;;9.90;82.92
78444;BME280;67739;52.986;8.894;2023-03-14T07:56:18;98787.94;;;9.98;82.35
78444;BME280;67739;52.986;8.894;2023-03-14T07:58:44;98781.16;;;10.05;82.32
78444;BME280;67739;52.986;8.894;2023-03-14T08:01:09;98782.13;;;10.15;82.21
78444;BME280;67739;52.986;8.894;2023-03-14T08:03:35;98785.81;;;10.25;81.94
78444;BME280;67739;52.986;8.894;2023-03-14T08:06:00;98782.31;;;10.36;82.30
78444;BME280;67739;52.986;8.894;2023-03-14T08:08:25;98787.91;;;10.44;81.38
78444;BME280;67739;52.986;8.894;2023-03-14T08:10:51;98779.50;;;10.49;80.18
78444;BME280;67739;52.986;8.894;2023-03-14T08:13:16;98781.09;;;10.51;79.65
78444;BME280;67739;52.986;8.894;2023-03-14T08:15:41;98782.53;;;10.55;79.72
78444;BME280;67739;52.986;8.894;2023-03-14T08:18:07;98779.50;;;10.60;78.70
78444;BME280;67739;52.986;8.894;2023-03-14T08:20:32;98776.78;;;10.71;79.69
78444;BME280;67739;52.986;8.894;2023-03-14T08:22:59;98774.94;;;10.83;79.33
78444;BME280;67739;52.986;8.894;2023-03-14T08:25:25;98776.03;;;10.91;78.51
78444;BME280;67739;52.986;8.894;2023-03-14T08:27:51;98777.63;;;10.94;77.35
78444;BME280;67739;52.986;8.894;2023-03-14T08:30:18;98772.13;;;10.95;77.13
78444;BME280;67739;52.986;8.894;2023-03-14T08:32:43;98776.38;;;10.98;77.29
78444;BME280;67739;52.986;8.894;2023-03-14T08:35:09;98788.56;;;11.02;77.06
78444;BME280;67739;52.986;8.894;2023-03-14T08:37:35;98782.34;;;11.02;76.50
78444;BME280;67739;52.986;8.894;2023-03-14T08:40:02;98777.84;;;11.02;76.49
78444;BME280;67739;52.986;8.894;2023-03-14T08:42:32;98773.81;;;10.96;76.04
78444;BME280;67739;52.986;8.894;2023-03-14T08:44:58;98792.13;;;10.91;75.59
78444;BME280;67739;52.986;8.894;2023-03-14T08:47:23;98785.44;;;10.86;76.48
78444;BME280;67739;52.986;8.894;2023-03-14T08:49:48;98801.19;;;10.79;76.89
78444;BME280;67739;52.986;8.894;2023-03-14T08:52:14;98792.75;;;10.73;77.22
78444;BME280;67739;52.986;8.894;2023-03-14T08:54:41;98809.47;;;10.65;77.70
78444;BME280;67739;52.986;8.894;2023-03-14T08:57:07;98803.00;;;10.56;78.49
78444;BME280;67739;52.986;8.894;2023-03-14T08:59:32;98812.13;;;10.54;79.34
78444;BME280;67739;52.986;8.894;2023-03-14T09:01:57;98808.03;;;10.50;79.99
78444;BME280;67739;52.986;8.894;2023-03-14T09:04:22;98808.13;;;10.48;80.36
78444;BME280;67739;52.986;8.894;2023-03-14T09:06:48;98807.16;;;10.49;81.40
78444;BME280;67739;52.986;8.894;2023-03-14T09:09:13;98800.94;;;10.49;81.14
78444;BME280;67739;52.986;8.894;2023-03-14T09:11:39;98811.91;;;10.46;80.90
78444;BME280;67739;52.986;8.894;2023-03-14T09:14:05;98805.06;;;10.42;80.57
78444;BME280;67739;52.986;8.894;2023-03-14T09:16:30;98811.69;;;10.38;80.59
78444;BME280;67739;52.986;8.894;2023-03-14T09:18:55;98812.88;;;10.34;80.97
78444;BME280;67739;52.986;8.894;2023-03-14T09:21:25;98822.00;;;10.31;80.75
78444;BME280;67739;52.986;8.894;2023-03-14T09:23:50;98833.94;;;10.27;81.12
78444;BME280;67739;52.986;8.894;2023-03-14T09:26:15;98845.75;;;10.24;80.90
78444;BME280;67739;52.986;8.894;2023-03-14T09:28:41;98912.25;;;10.19;80.95
78444;BME280;67739;52.986;8.894;2023-03-14T09:31:15;98927.41;;;9.84;74.88
78444;BME280;67739;52.986;8.894;2023-03-14T09:33:40;98947.88;;;9.25;73.36
78444;BME280;67739;52.986;8.894;2023-03-14T09:36:06;98973.91;;;8.59;75.11
78444;BME280;67739;52.986;8.894;2023-03-14T09:38:33;98961.47;;;7.93;76.32
78444;BME280;67739;52.986;8.894;2023-03-14T09:41:00;98980.19;;;7.52;77.35
78444;BME280;67739;52.986;8.894;2023-03-14T09:43:30;98983.50;;;7.15;79.09
78444;BME280;67739;52.986;8.894;2023-03-14T09:45:58;98989.00;;;6.83;80.04
78444;BME280;67739;52.986;8.894;2023-03-14T09:48:29;99006.13;;;6.65;80.56
78444;BME280;67739;52.986;8.894;2023-03-14T09:50:57;99025.81;;;6.48;81.46
78444;BME280;67739;52.986;8.894;2023-03-14T09:53:27;99035.56;;;6.33;81.82
78444;BME280;67739;52.986;8.894;2023-03-14T09:55:54;99044.78;;;6.12;81.46
78444;BME280;67739;52.986;8.894;2023-03-14T09:58:21;99043.69;;;6.00;82.79
78444;BME280;67739;52.986;8.894;2023-03-14T10:00:49;99050.59;;;5.89;82.53
78444;BME280;67739;52.986;8.894;2023-03-14T10:03:25;99073.88;;;5.84;83.39
78444;BME280;67739;52.986;8.894;2023-03-14T10:05:51;99084.00;;;5.77;81.95
78444;BME280;67739;52.986;8.894;2023-03-14T10:08:17;99099.13;;;5.61;81.70
78444;BME280;67739;52.986;8.894;2023-03-14T10:10:42;99101.91;;;5.42;82.17
78444;BME280;67739;52.986;8.894;2023-03-14T10:13:19;99128.63;;;5.23;81.57
78444;BME280;67739;52.986;8.894;2023-03-14T10:15:50;99131.28;;;4.90;80.77
78444;BME280;67739;52.986;8.894;2023-03-14T10:18:16;99153.03;;;4.62;82.02
78444;BME280;67739;52.986;8.894;2023-03-14T10:20:44;99164.66;;;4.43;83.09
78444;BME280;67739;52.986;8.894;2023-03-14T10:25:46;99179.03;;;4.20;82.80
78444;BME280;67739;52.986;8.894;2023-03-14T10:28:24;99200.72;;;4.11;83.37
78444;BME280;67739;52.986;8.894;2023-03-14T10:30:50;99216.63;;;4.11;84.05
78444;BME280;67739;52.986;8.894;2023-03-14T10:35:44;99242.25;;;4.12;84.88
78444;BME280;67739;52.986;8.894;2023-03-14T10:38:15;99243.25;;;4.09;84.37
78444;BME280;67739;52.986;8.894;2023-03-14T10:40:47;99255.94;;;4.03;84.10
78444;BME280;67739;52.986;8.894;2023-03-14T10:43:20;99270.34;;;3.97;84.28
78444;BME280;67739;52.986;8.894;2023-03-14T10:46:01;99279.22;;;3.96;85.03
78444;BME280;67739;52.986;8.894;2023-03-14T10:48:38;99296.09;;;3.95;84.73
78444;BME280;67739;52.986;8.894;2023-03-14T10:51:26;99311.25;;;3.91;85.07
78444;BME280;67739;52.986;8.894;2023-03-14T10:54:20;99307.13;;;3.86;84.67
78444;BME280;67739;52.986;8.894;2023-03-14T10:56:56;99316.06;;;3.83;84.71
78444;BME280;67739;52.986;8.894;2023-03-14T10:59:22;99325.00;;;3.81;84.68
78444;BME280;67739;52.986;8.894;2023-03-14T11:02:04;99329.47;;;3.80;84.73
78444;BME280;67739;52.986;8.894;2023-03-14T11:07:41;99327.59;;;3.82;85.71
78444;BME280;67739;52.986;8.894;2023-03-14T11:10:24;99323.09;;;3.84;85.10
78444;BME280;67739;52.986;8.894;2023-03-14T11:21:08;99382.63;;;3.98;83.96
78444;BME280;67739;52.986;8.894;2023-03-14T11:23:55;99373.47;;;4.05;84.43
78444;BME280;67739;52.986;8.894;2023-03-14T11:29:33;99378.44;;;4.12;83.02
78444;BME280;67739;52.986;8.894;2023-03-14T11:32:07;99391.78;;;4.11;83.28
78444;BME280;67739;52.986;8.894;2023-03-14T11:34:44;99396.09;;;4.13;83.68
78444;BME280;67739;52.986;8.894;2023-03-14T11:37:34;99412.53;;;4.21;84.01
78444;BME280;67739;52.986;8.894;2023-03-14T11:40:23;99418.94;;;4.36;85.19
78444;BME280;67739;52.986;8.894;2023-03-14T11:43:04;99420.28;;;4.46;84.19
78444;BME280;67739;52.986;8.894;2023-03-14T11:45:36;99437.09;;;4.47;81.65
78444;BME280;67739;52.986;8.894;2023-03-14T11:50:45;99443.69;;;4.57;82.77
78444;BME280;67739;52.986;8.894;2023-03-14T11:53:21;99456.69;;;4.63;82.42
78444;BME280;67739;52.986;8.894;2023-03-14T11:55:48;99475.88;;;4.70;81.71
78444;BME280;67739;52.986;8.894;2023-03-14T11:58:29;99490.44;;;4.80;81.97
78444;BME280;67739;52.986;8.894;2023-03-14T12:00:57;99494.56;;;4.87;82.04
78444;BME280;67739;52.986;8.894;2023-03-14T12:03:35;99493.13;;;4.98;81.85
78444;BME280;67739;52.986;8.894;2023-03-14T12:06:22;99506.66;;;5.13;80.63
78444;BME280;67739;52.986;8.894;2023-03-14T12:08:57;99502.00;;;5.18;79.37
78444;BME280;67739;52.986;8.894;2023-03-14T12:12:00;99517.94;;;5.18;79.04
78444;BME280;67739;52.986;8.894;2023-03-14T12:14:28;99540.84;;;5.20;80.52
78444;BME280;67739;52.986;8.894;2023-03-14T12:16:57;99542.75;;;5.18;80.14
78444;BME280;67739;52.986;8.894;2023-03-14T12:21:58;99558.25;;;5.27;81.33
78444;BME280;67739;52.986;8.894;2023-03-14T12:24:29;99564.94;;;5.36;81.62
78444;BME280;67739;52.986;8.894;2023-03-14T12:26:57;99567.31;;;5.42;81.05
78444;BME280;67739;52.986;8.894;2023-03-14T12:29:23;99570.25;;;5.36;79.16
78444;BME280;67739;52.986;8.894;2023-03-14T12:32:12;99580.88;;;5.36;79.43
78444;BME280;67739;52.986;8.894;2023-03-14T12:34:46;99600.88;;;5.26;76.81
78444;BME280;67739;52.986;8.894;2023-03-14T12:37:36;99614.28;;;5.23;79.33
78444;BME280;67739;52.986;8.894;2023-03-14T12:40:30;99616.44;;;5.15;78.07
78444;BME280;67739;52.986;8.894;2023-03-14T12:42:59;99618.50;;;5.08;78.94
78444;BME280;67739;52.986;8.894;2023-03-14T12:45:30;99632.88;;;5.04;79.66
78444;BME280;67739;52.986;8.894;2023-03-14T12:48:17;99636.78;;;4.95;76.27
78444;BME280;67739;52.986;8.894;2023-03-14T12:50:54;99636.72;;;4.97;75.45
78444;BME280;67739;52.986;8.894;2023-03-14T12:56:04;99642.84;;;4.99;71.17
78444;BME280;67739;52.986;8.894;2023-03-14T12:58:39;99658.31;;;5.10;68.99
78444;BME280;67739;52.986;8.894;2023-03-14T13:01:15;99666.34;;;5.28;69.60
78444;BME280;67739;52.986;8.894;2023-03-14T13:03:58;99676.47;;;5.59;71.20
78444;BME280;67739;52.986;8.894;2023-03-14T13:11:51;99705.53;;;5.83;61.92
78444;BME280;67739;52.986;8.894;2023-03-14T13:14:18;99722.38;;;5.83;62.19
78444;BME280;67739;52.986;8.894;2023-03-14T13:16:43;99718.53;;;5.90;60.76
78444;BME280;67739;52.986;8.894;2023-03-14T13:19:22;99728.75;;;5.99;59.85
78444;BME280;67739;52.986;8.894;2023-03-14T13:21:50;99735.38;;;6.10;58.29
78444;BME280;67739;52.986;8.894;2023-03-14T13:24:24;99743.06;;;6.16;56.39
78444;BME280;67739;52.986;8.894;2023-03-14T13:26:54;99728.91;;;6.15;58.03
78444;BME280;67739;52.986;8.894;2023-03-14T13:29:20;99756.47;;;6.14;57.96
78444;BME280;67739;52.986;8.894;2023-03-14T13:31:48;99757.38;;;6.13;58.21
78444;BME280;67739;52.986;8.894;2023-03-14T13:34:14;99760.25;;;6.09;57.77
78444;BME280;67739;52.986;8.894;2023-03-14T13:36:42;99769.34;;;6.05;58.21
78444;BME280;67739;52.986;8.894;2023-03-14T13:39:17;99791.84;;;5.97;58.82
78444;BME280;67739;52.986;8.894;2023-03-14T13:41:43;99784.28;;;5.88;58.19
78444;BME280;67739;52.986;8.894;2023-03-14T13:44:15;99800.59;;;5.79;58.64
78444;BME280;67739;52.986;8.894;2023-03-14T13:46:41;99808.09;;;5.71;58.21
78444;BME280;67739;52.986;8.894;2023-03-14T13:49:10;99809.19;;;5.65;59.35
78444;BME280;67739;52.986;8.894;2023-03-14T13:51:39;99813.53;;;5.68;58.93
78444;BME280;67739;52.986;8.894;2023-03-14T13:54:14;99819.78;;;5.67;57.74
78444;BME280;67739;52.986;8.894;2023-03-14T13:56:39;99834.88;;;5.66;57.94